createdAt,value
2024-05-09T00:00:41.242Z,8.60
2024-05-09T00:03:10.194Z,8.43
2024-05-09T00:05:40.718Z,8.70
2024-05-09T00:08:08.940Z,9.60
2024-05-09T00:10:38.433Z,8.93
2024-05-09T00:13:07.491Z,9.57
2024-05-09T00:15:35.739Z,9.70
2024-05-09T00:18:04.311Z,10.20
2024-05-09T00:20:37.949Z,9.80
2024-05-09T00:23:08.836Z,10.67
2024-05-09T00:25:36.788Z,10.70
2024-05-09T00:28:03.987Z,10.80
2024-05-09T00:30:34.800Z,11.67
2024-05-09T00:33:08.110Z,11.40
2024-05-09T00:35:36.611Z,10.20
2024-05-09T00:38:04.411Z,11.20
2024-05-09T00:40:41.753Z,11.03
2024-05-09T00:43:14.787Z,11.13
2024-05-09T00:45:43.688Z,11.67
2024-05-09T00:48:14.129Z,12.30
2024-05-09T00:50:44.939Z,10.87
2024-05-09T00:53:14.243Z,12.60
2024-05-09T00:55:41.773Z,12.73
2024-05-09T00:58:12.019Z,12.40
2024-05-09T01:00:41.126Z,13.00
2024-05-09T01:03:11.615Z,11.63
2024-05-09T01:05:40.771Z,11.43
2024-05-09T01:08:09.128Z,13.30
2024-05-09T01:10:37.330Z,12.20
2024-05-09T01:13:05.538Z,13.60
2024-05-09T01:15:33.935Z,13.60
2024-05-09T01:18:13.460Z,11.30
2024-05-09T01:20:44.013Z,11.23
2024-05-09T01:23:14.884Z,12.57
2024-05-09T01:25:44.332Z,13.77
2024-05-09T01:28:11.490Z,13.30
2024-05-09T01:30:38.871Z,12.83
2024-05-09T01:33:08.280Z,12.40
2024-05-09T01:35:37.807Z,14.37
2024-05-09T01:38:05.267Z,13.27
2024-05-09T01:40:37.886Z,13.30
2024-05-09T01:43:08.933Z,13.13
2024-05-09T01:45:36.919Z,14.60
2024-05-09T01:48:04.552Z,14.37
2024-05-09T01:53:01.745Z,15.10
2024-05-09T01:55:28.699Z,14.93
2024-05-09T01:57:55.653Z,13.67
2024-05-09T02:00:33.815Z,13.80
2024-05-09T02:03:10.010Z,13.33
2024-05-09T02:05:37.951Z,14.30
2024-05-09T02:08:06.463Z,16.20
2024-05-09T02:10:33.781Z,15.67
2024-05-09T02:13:01.152Z,15.43
2024-05-09T02:15:28.282Z,14.73
2024-05-09T02:17:55.553Z,16.10
2024-05-09T02:20:30.317Z,16.60
2024-05-09T02:23:04.228Z,15.63
2024-05-09T02:25:32.014Z,17.10
2024-05-09T02:27:59.247Z,16.10
2024-05-09T02:30:35.940Z,16.07
2024-05-09T02:33:08.083Z,16.03
2024-05-09T02:35:36.000Z,15.90
2024-05-09T02:38:03.272Z,17.17
2024-05-09T02:40:36.745Z,17.77
2024-05-09T02:43:06.873Z,17.87
2024-05-09T02:45:34.094Z,18.03
2024-05-09T02:48:02.050Z,17.80
2024-05-09T02:50:36.729Z,16.33
2024-05-09T02:53:07.104Z,17.83
2024-05-09T02:55:34.770Z,18.57
2024-05-09T02:58:01.677Z,17.40
2024-05-09T03:00:36.932Z,17.77
2024-05-09T03:03:08.237Z,19.17
2024-05-09T03:05:36.476Z,19.10
2024-05-09T03:08:04.132Z,18.27
2024-05-09T03:10:36.012Z,18.57
2024-05-09T03:13:08.619Z,19.93
2024-05-09T03:15:35.911Z,19.87
2024-05-09T03:18:03.807Z,21.20
2024-05-09T03:20:34.702Z,22.00
2024-05-09T03:23:05.067Z,21.13
2024-05-09T03:25:32.533Z,21.67
2024-05-09T03:27:59.795Z,21.03
2024-05-09T03:30:38.455Z,21.57
2024-05-09T03:33:17.710Z,22.20
2024-05-09T03:35:47.091Z,22.27
2024-05-09T03:38:14.464Z,21.83
2024-05-09T03:40:50.606Z,20.97
2024-05-09T03:43:19.552Z,20.37
2024-05-09T03:45:49.911Z,19.60
2024-05-09T03:48:17.518Z,20.10
2024-05-09T03:50:44.761Z,20.20
2024-05-09T03:53:13.291Z,23.10
2024-05-09T03:55:40.849Z,22.60
2024-05-09T03:58:08.408Z,20.83
2024-05-09T04:00:39.159Z,23.07
2024-05-09T04:03:10.360Z,20.50
2024-05-09T04:05:41.075Z,22.13
2024-05-09T04:08:09.856Z,23.73
2024-05-09T04:10:37.108Z,22.33
2024-05-09T04:13:04.528Z,21.77
2024-05-09T04:15:33.857Z,23.20
2024-05-09T04:18:01.615Z,21.13
2024-05-09T04:20:37.378Z,20.37
2024-05-09T04:23:08.896Z,20.20
2024-05-09T04:25:36.840Z,20.57
2024-05-09T04:28:04.024Z,19.33
2024-05-09T04:30:37.638Z,18.60
2024-05-09T04:33:09.569Z,19.50
2024-05-09T04:35:39.091Z,16.57
2024-05-09T04:38:06.477Z,18.10
2024-05-09T04:40:36.364Z,18.07
2024-05-09T04:43:05.480Z,20.03
2024-05-09T04:45:32.766Z,17.23
2024-05-09T04:48:00.209Z,18.37
2024-05-09T04:50:36.068Z,17.97
2024-05-09T04:53:08.677Z,18.57
2024-05-09T04:55:37.260Z,17.80
2024-05-09T04:58:05.532Z,16.97
2024-05-09T05:00:37.184Z,16.07
2024-05-09T05:03:10.129Z,16.00
2024-05-09T05:05:42.550Z,16.07
2024-05-09T05:08:17.562Z,16.70
2024-05-09T05:10:46.259Z,15.90
2024-05-09T05:13:20.276Z,16.60
2024-05-09T05:15:57.432Z,17.17
2024-05-09T05:18:27.540Z,16.87
2024-05-09T05:20:58.682Z,16.60
2024-05-09T05:23:26.021Z,16.33
2024-05-09T05:25:54.502Z,17.57
2024-05-09T05:28:22.188Z,17.10
2024-05-09T05:30:49.316Z,16.90
2024-05-09T05:33:20.037Z,18.10
2024-05-09T05:35:47.597Z,15.93
2024-05-09T05:38:14.741Z,16.87
2024-05-09T05:40:41.898Z,14.67
2024-05-09T05:43:15.615Z,15.37
2024-05-09T05:45:43.616Z,16.73
2024-05-09T05:48:10.751Z,15.70
2024-05-09T05:50:38.724Z,17.30
2024-05-09T05:53:07.965Z,16.20
2024-05-09T05:55:36.692Z,16.77
2024-05-09T05:58:03.913Z,16.47
2024-05-09T06:00:38.113Z,16.70
2024-05-09T06:03:08.475Z,17.30
2024-05-09T06:05:38.688Z,17.00
2024-05-09T06:08:06.350Z,16.47
2024-05-09T06:10:38.359Z,14.20
2024-05-09T06:13:10.407Z,15.30
2024-05-09T06:15:37.507Z,15.30
2024-05-09T06:18:11.963Z,14.53
2024-05-09T06:20:42.609Z,14.60
2024-05-09T06:23:10.943Z,14.50
2024-05-09T06:25:38.114Z,15.70
2024-05-09T06:28:05.846Z,15.20
2024-05-09T06:33:03.347Z,15.33
2024-05-09T06:35:30.659Z,14.93
2024-05-09T06:37:57.834Z,14.30
2024-05-09T06:40:29.458Z,15.93
2024-05-09T06:43:02.385Z,15.93
2024-05-09T06:45:29.351Z,14.83
2024-05-09T06:47:56.444Z,16.67
2024-05-09T06:50:28.277Z,15.33
2024-05-09T06:52:58.606Z,15.97
2024-05-09T06:55:25.617Z,16.00
2024-05-09T06:57:52.502Z,15.50
2024-05-09T07:00:27.429Z,17.00
2024-05-09T07:03:05.702Z,16.40
2024-05-09T07:05:33.456Z,16.70
2024-05-09T07:08:00.586Z,16.63
2024-05-09T07:10:33.099Z,17.23
2024-05-09T07:13:02.434Z,15.83
2024-05-09T07:15:29.395Z,14.73
2024-05-09T07:17:58.356Z,15.33
2024-05-09T07:20:33.759Z,15.83
2024-05-09T07:23:03.155Z,14.30
2024-05-09T07:25:30.475Z,14.67
2024-05-09T07:27:57.586Z,15.23
2024-05-09T07:30:32.563Z,15.27
2024-05-09T07:33:02.357Z,15.17
2024-05-09T07:35:30.383Z,14.40
2024-05-09T07:37:57.777Z,14.50
2024-05-09T07:40:32.853Z,14.67
2024-05-09T07:43:04.430Z,12.93
2024-05-09T07:45:48.069Z,12.73
2024-05-09T07:52:37.169Z,13.40
2024-05-09T07:53:48.004Z,11.30
2024-05-09T07:56:19.925Z,11.60
2024-05-09T07:58:50.391Z,10.30
2024-05-09T08:01:17.655Z,11.50
2024-05-09T08:03:45.431Z,11.30
2024-05-09T08:06:12.622Z,12.17
2024-05-09T08:08:39.555Z,12.57
2024-05-09T08:11:06.715Z,11.70
2024-05-09T08:13:33.835Z,11.80
2024-05-09T08:16:01.307Z,11.40
2024-05-09T08:18:28.536Z,11.60
2024-05-09T08:20:55.625Z,10.83
2024-05-09T08:23:23.780Z,11.30
2024-05-09T08:25:52.979Z,10.70
2024-05-09T08:28:20.461Z,10.90
2024-05-09T08:30:47.795Z,11.27
2024-05-09T08:33:15.154Z,10.33
2024-05-09T08:35:42.380Z,9.30
2024-05-09T08:38:09.562Z,10.30
2024-05-09T08:40:38.018Z,9.97
2024-05-09T08:43:11.443Z,9.10
2024-05-09T08:45:44.131Z,8.90
2024-05-09T08:48:14.555Z,8.67
2024-05-09T08:50:43.094Z,8.40
2024-05-09T08:53:10.314Z,9.10
2024-05-09T08:55:40.830Z,9.00
2024-05-09T08:58:18.270Z,8.43
2024-05-09T09:00:46.742Z,8.70
2024-05-09T09:03:19.914Z,8.37
2024-05-09T09:05:59.147Z,8.17
2024-05-09T09:08:26.277Z,8.10
2024-05-09T09:10:57.591Z,7.73
2024-05-09T09:13:25.361Z,8.37
2024-05-09T09:18:27.955Z,7.83
2024-05-09T09:20:55.586Z,7.07
2024-05-09T09:23:23.078Z,7.60
2024-05-09T09:25:50.633Z,6.70
2024-05-09T09:28:17.817Z,6.30
2024-05-09T09:30:45.483Z,5.93
2024-05-09T09:33:12.606Z,6.30
2024-05-09T09:35:42.369Z,5.77
2024-05-09T09:38:10.691Z,6.67
2024-05-09T09:40:45.089Z,7.57
2024-05-09T09:43:21.383Z,7.60
2024-05-09T09:45:51.037Z,5.90
2024-05-09T09:48:20.232Z,6.90
2024-05-09T09:50:50.020Z,6.40
2024-05-09T09:53:17.115Z,6.67
2024-05-09T09:55:44.231Z,6.70
2024-05-09T09:58:14.249Z,6.73
2024-05-09T10:00:42.169Z,6.43
2024-05-09T10:03:09.747Z,6.33
2024-05-09T10:05:37.268Z,6.10
2024-05-09T10:08:07.513Z,6.00
2024-05-09T10:10:35.663Z,4.70
2024-05-09T10:13:06.695Z,3.73
2024-05-09T10:15:48.388Z,4.20
2024-05-09T10:18:16.002Z,5.10
2024-05-09T10:20:45.197Z,4.60
2024-05-09T10:23:29.385Z,4.17
2024-05-09T10:26:03.620Z,4.60
2024-05-09T10:28:33.267Z,4.20
2024-05-09T10:31:03.026Z,4.37
2024-05-09T10:33:45.028Z,4.37
2024-05-09T10:36:20.117Z,4.20
2024-05-09T10:38:52.381Z,3.90
2024-05-09T10:41:21.393Z,4.00
2024-05-09T10:43:49.345Z,3.80
2024-05-09T10:46:18.776Z,5.40
2024-05-09T10:48:46.870Z,5.93
2024-05-09T10:51:14.024Z,5.83
2024-05-09T10:53:42.434Z,5.30
2024-05-09T10:56:10.096Z,5.40
2024-05-09T10:58:37.243Z,5.97
2024-05-09T11:01:07.087Z,5.30
2024-05-09T11:03:35.881Z,5.80
2024-05-09T11:06:06.413Z,6.17
2024-05-09T11:08:35.033Z,6.10
2024-05-09T11:11:06.733Z,5.70
2024-05-09T11:13:36.268Z,5.30
2024-05-09T11:16:04.891Z,6.17
2024-05-09T11:18:36.485Z,6.07
2024-05-09T11:21:13.006Z,6.10
2024-05-09T11:23:40.619Z,65.73
2024-05-09T11:26:07.616Z,17.03
2024-05-09T11:28:36.165Z,6.43
2024-05-09T11:31:08.638Z,5.40
2024-05-09T11:33:41.344Z,5.03
2024-05-09T11:36:09.528Z,5.40
2024-05-09T11:38:36.703Z,6.20
2024-05-09T11:41:06.051Z,7.03
2024-05-09T11:43:33.600Z,5.47
2024-05-09T11:46:02.636Z,5.80
2024-05-09T11:48:30.361Z,5.70
2024-05-09T11:50:57.642Z,6.87
2024-05-09T11:53:24.582Z,6.57
2024-05-09T11:55:51.719Z,6.43
2024-05-09T11:58:19.353Z,6.90
2024-05-09T12:00:47.211Z,6.00
2024-05-09T12:03:14.663Z,5.90
2024-05-09T12:05:41.996Z,6.13
2024-05-09T12:08:09.294Z,6.60
2024-05-09T12:10:37.046Z,8.13
2024-05-09T12:13:06.305Z,6.97
2024-05-09T12:15:37.748Z,7.00
2024-05-09T12:18:06.829Z,7.70
2024-05-09T12:20:37.856Z,6.70
2024-05-09T12:23:09.354Z,7.53
2024-05-09T12:25:37.655Z,7.20
2024-05-09T12:28:05.275Z,5.90
2024-05-09T12:30:37.529Z,8.10
2024-05-09T12:33:09.036Z,7.20
2024-05-09T12:35:36.470Z,6.90
2024-05-09T12:38:04.183Z,6.47
2024-05-09T12:40:36.275Z,7.10
2024-05-09T12:43:08.230Z,6.73
2024-05-09T12:45:36.514Z,7.00
2024-05-09T12:48:06.860Z,6.40
2024-05-09T12:50:34.790Z,6.07
2024-05-09T12:53:03.429Z,6.50
2024-05-09T12:55:37.608Z,6.87
2024-05-09T12:58:12.326Z,6.93
2024-05-09T13:00:39.422Z,6.80
2024-05-09T13:03:07.023Z,6.60
2024-05-09T13:05:34.171Z,7.17
2024-05-09T13:08:01.996Z,6.80
2024-05-09T13:10:32.463Z,7.47
2024-05-09T13:13:01.785Z,6.63
2024-05-09T13:15:31.143Z,6.30
2024-05-09T13:18:02.005Z,7.17
2024-05-09T13:20:33.856Z,6.30
2024-05-09T13:23:04.694Z,5.57
2024-05-09T13:25:32.231Z,7.07
2024-05-09T13:27:59.312Z,6.37
2024-05-09T13:30:35.500Z,5.83
2024-05-09T13:33:08.650Z,6.87
2024-05-09T13:35:36.243Z,5.90
2024-05-09T13:38:04.383Z,6.20
2024-05-09T13:40:34.850Z,6.57
2024-05-09T13:43:06.834Z,6.30
2024-05-09T13:45:35.201Z,5.87
2024-05-09T13:48:04.045Z,5.17
2024-05-09T13:50:35.256Z,5.43
2024-05-09T13:53:08.492Z,5.70
2024-05-09T13:55:42.610Z,4.77
2024-05-09T13:58:09.905Z,5.97
2024-05-09T14:00:46.625Z,5.17
2024-05-09T14:03:18.902Z,6.47
2024-05-09T14:05:47.829Z,5.53
2024-05-09T14:08:15.691Z,5.60
2024-05-09T14:10:46.380Z,6.07
2024-05-09T14:13:14.049Z,4.87
2024-05-09T14:15:41.798Z,4.93
2024-05-09T14:18:12.690Z,5.90
2024-05-09T14:20:41.708Z,6.30
2024-05-09T14:23:08.867Z,5.80
2024-05-09T14:25:39.882Z,5.97
2024-05-09T14:28:09.704Z,5.50
2024-05-09T14:30:38.350Z,6.20
2024-05-09T14:33:07.784Z,7.10
2024-05-09T14:35:37.386Z,7.00
2024-05-09T14:38:04.716Z,6.40
2024-05-09T14:40:40.567Z,6.43
2024-05-09T14:43:12.388Z,6.50
2024-05-09T14:45:40.206Z,6.33
2024-05-09T14:48:08.011Z,6.40
2024-05-09T14:50:38.531Z,6.10
2024-05-09T14:53:11.203Z,7.20
2024-05-09T14:55:40.443Z,5.67
2024-05-09T14:58:13.012Z,5.47
2024-05-09T15:00:46.328Z,5.47
2024-05-09T15:03:18.401Z,6.83
2024-05-09T15:05:46.640Z,6.83
2024-05-09T15:08:13.634Z,6.03
2024-05-09T15:10:40.729Z,6.37
2024-05-09T15:13:09.650Z,5.57
2024-05-09T15:15:38.405Z,5.33
2024-05-09T15:18:06.190Z,6.67
2024-05-09T15:20:36.312Z,5.90
2024-05-09T15:23:06.401Z,5.23
2024-05-09T15:25:34.870Z,5.50
2024-05-09T15:28:02.019Z,4.83
2024-05-09T15:30:32.181Z,6.87
2024-05-09T15:33:03.653Z,6.67
2024-05-09T15:35:31.303Z,6.50
2024-05-09T15:37:58.406Z,7.40
2024-05-09T15:40:35.175Z,7.20
2024-05-09T15:43:07.294Z,6.60
2024-05-09T15:45:34.995Z,7.50
2024-05-09T15:48:03.329Z,6.57
2024-05-09T15:50:37.598Z,7.93
2024-05-09T15:53:09.266Z,6.93
2024-05-09T15:55:37.217Z,6.30
2024-05-09T15:58:04.928Z,6.80
2024-05-09T16:00:38.122Z,6.67
2024-05-09T16:03:12.754Z,7.20
2024-05-09T16:05:41.653Z,7.60
2024-05-09T16:08:09.213Z,8.10
2024-05-09T16:10:38.769Z,8.40
2024-05-09T16:13:06.331Z,7.30
2024-05-09T16:15:33.557Z,8.43
2024-05-09T16:18:01.068Z,8.00
2024-05-09T16:20:37.439Z,8.10
2024-05-09T16:23:08.518Z,8.60
2024-05-09T16:25:35.826Z,8.97
2024-05-09T16:28:07.421Z,7.80
2024-05-09T16:30:37.682Z,7.47
2024-05-09T16:33:05.770Z,8.63
2024-05-09T16:35:34.516Z,6.97
2024-05-09T16:38:05.866Z,8.10
2024-05-09T16:40:38.085Z,7.37
2024-05-09T16:43:08.851Z,7.70
2024-05-09T16:45:36.716Z,8.07
2024-05-09T16:48:04.450Z,8.27
2024-05-09T16:50:34.674Z,8.33
2024-05-09T16:53:04.316Z,8.77
2024-05-09T16:55:32.137Z,8.53
2024-05-09T16:57:59.450Z,8.70
2024-05-09T17:00:36.370Z,7.70
2024-05-09T17:03:10.282Z,8.73
2024-05-09T17:05:38.467Z,8.10
2024-05-09T17:08:06.384Z,7.30
2024-05-09T17:10:35.215Z,7.03
2024-05-09T17:13:04.511Z,8.30
2024-05-09T17:15:33.290Z,7.90
2024-05-09T17:18:01.427Z,9.50
2024-05-09T17:20:33.551Z,8.97
2024-05-09T17:23:04.586Z,9.03
2024-05-09T17:25:32.202Z,8.00
2024-05-09T17:28:06.062Z,8.70
2024-05-09T17:30:36.670Z,8.83
2024-05-09T17:33:07.603Z,8.07
2024-05-09T17:35:36.376Z,8.57
2024-05-09T17:38:05.086Z,7.50
2024-05-09T17:40:35.778Z,9.00
2024-05-09T17:43:06.332Z,8.33
2024-05-09T17:45:34.508Z,8.30
2024-05-09T17:48:02.099Z,8.13
2024-05-09T17:50:35.308Z,11.80
2024-05-09T17:53:07.986Z,8.70
2024-05-09T17:55:35.888Z,8.43
2024-05-09T17:58:04.284Z,7.87
2024-05-09T18:00:38.350Z,7.70
2024-05-09T18:03:10.706Z,8.80
2024-05-09T18:05:38.261Z,8.60
2024-05-09T18:08:06.772Z,7.63
2024-05-09T18:10:38.009Z,7.90
2024-05-09T18:13:08.232Z,7.43
2024-05-09T18:15:35.950Z,7.27
2024-05-09T18:18:03.945Z,7.23
2024-05-09T18:20:40.894Z,6.63
2024-05-09T18:23:13.251Z,7.20
2024-05-09T18:25:40.845Z,7.03
2024-05-09T18:28:08.195Z,6.60
2024-05-09T18:30:36.897Z,7.13
2024-05-09T18:33:06.496Z,8.87
2024-05-09T18:35:35.438Z,11.87
2024-05-09T18:38:03.037Z,9.23
2024-05-09T18:40:34.505Z,8.90
2024-05-09T18:43:06.259Z,7.90
2024-05-09T18:45:35.106Z,7.77
2024-05-09T18:48:03.090Z,7.20
2024-05-09T18:50:35.653Z,7.50
2024-05-09T18:53:06.270Z,7.80
2024-05-09T18:55:33.551Z,7.50
2024-05-09T18:58:00.698Z,7.00
2024-05-09T19:00:34.519Z,6.53
2024-05-09T19:03:09.119Z,6.00
2024-05-09T19:05:38.849Z,6.80
2024-05-09T19:08:07.361Z,6.33
2024-05-09T19:10:35.987Z,5.60
2024-05-09T19:13:08.621Z,6.40
2024-05-09T19:15:39.709Z,5.57
2024-05-09T19:18:07.740Z,6.00
2024-05-09T19:20:36.499Z,5.70
2024-05-09T19:23:05.515Z,5.40
2024-05-09T19:25:33.348Z,6.90
2024-05-09T19:28:01.114Z,7.33
2024-05-09T19:30:37.328Z,7.50
2024-05-09T19:33:09.229Z,6.60
2024-05-09T19:35:36.900Z,6.67
2024-05-09T19:38:04.962Z,6.80
2024-05-09T19:40:33.907Z,6.53
2024-05-09T19:43:03.302Z,5.87
2024-05-09T19:45:32.315Z,5.63
2024-05-09T19:47:59.649Z,6.37
2024-05-09T19:50:35.558Z,5.83
2024-05-09T19:53:08.499Z,6.70
2024-05-09T19:55:35.674Z,6.30
2024-05-09T19:58:05.314Z,6.70
2024-05-09T20:00:39.705Z,6.63
2024-05-09T20:03:09.655Z,7.60
2024-05-09T20:05:37.786Z,6.63
2024-05-09T20:08:05.896Z,6.67
2024-05-09T20:10:35.309Z,6.90
2024-05-09T20:13:05.322Z,7.17
2024-05-09T20:15:35.123Z,6.70
2024-05-09T20:18:02.599Z,7.30
2024-05-09T20:20:37.356Z,7.17
2024-05-09T20:23:08.689Z,7.87
2024-05-09T20:25:35.827Z,7.90
2024-05-09T20:28:03.213Z,8.23
2024-05-09T20:30:32.981Z,8.17
2024-05-09T20:33:07.029Z,7.87
2024-05-09T20:35:35.495Z,8.03
2024-05-09T20:38:03.594Z,7.30
2024-05-09T20:40:35.662Z,7.33
2024-05-09T20:43:10.145Z,7.93
2024-05-09T20:45:37.665Z,8.27
2024-05-09T20:48:05.514Z,7.50
2024-05-09T20:50:38.593Z,8.07
2024-05-09T20:53:13.430Z,7.93
2024-05-09T20:55:42.149Z,7.47
2024-05-09T20:58:09.934Z,7.93
2024-05-09T21:00:40.826Z,7.37
2024-05-09T21:03:11.720Z,8.60
2024-05-09T21:05:39.630Z,9.17
2024-05-09T21:08:07.262Z,9.00
2024-05-09T21:10:35.991Z,9.00
2024-05-09T21:13:04.022Z,9.70
2024-05-09T21:15:32.077Z,9.27
2024-05-09T21:17:59.488Z,9.30
2024-05-09T21:22:57.650Z,9.97
2024-05-09T21:25:24.711Z,9.93
2024-05-09T21:27:52.184Z,9.47
2024-05-09T21:30:31.178Z,10.07
2024-05-09T21:33:06.206Z,10.13
2024-05-09T21:35:33.270Z,9.87
2024-05-09T21:38:00.290Z,9.90
2024-05-09T21:40:33.867Z,9.83
2024-05-09T21:43:03.305Z,10.03
2024-05-09T21:45:30.377Z,9.57
2024-05-09T21:47:57.465Z,10.03
2024-05-09T21:50:32.214Z,10.77
2024-05-09T21:53:06.612Z,10.70
2024-05-09T21:55:33.983Z,11.07
2024-05-09T21:58:01.116Z,12.53
2024-05-09T22:00:35.455Z,12.70
2024-05-09T22:03:09.489Z,12.37
2024-05-09T22:05:38.163Z,12.93
2024-05-09T22:08:05.888Z,12.60
2024-05-09T22:10:35.477Z,12.90
2024-05-09T22:13:05.443Z,12.57
2024-05-09T22:15:36.997Z,12.50
2024-05-09T22:18:05.632Z,11.73
2024-05-09T22:20:37.711Z,12.60
2024-05-09T22:23:07.003Z,13.93
2024-05-09T22:25:34.432Z,13.73
2024-05-09T22:28:02.095Z,12.13
2024-05-09T22:32:59.231Z,12.70
2024-05-09T22:35:26.465Z,12.60
2024-05-09T22:37:53.535Z,11.80
2024-05-09T22:40:28.370Z,12.87
2024-05-09T22:43:04.822Z,13.40
2024-05-09T22:45:31.918Z,13.03
2024-05-09T22:47:59.369Z,14.47
2024-05-09T22:50:30.599Z,15.73
2024-05-09T22:52:59.717Z,13.87
2024-05-09T22:55:26.635Z,13.87
2024-05-09T22:57:53.598Z,15.20
2024-05-09T23:00:29.202Z,15.20
2024-05-09T23:03:00.057Z,14.30
2024-05-09T23:05:27.333Z,17.07
2024-05-09T23:07:54.466Z,16.50
2024-05-09T23:10:28.264Z,15.57
2024-05-09T23:13:02.166Z,18.40
2024-05-09T23:15:29.454Z,19.43
2024-05-09T23:17:57.350Z,18.20
2024-05-09T23:22:54.571Z,17.70
2024-05-09T23:25:21.540Z,16.80
2024-05-09T23:27:48.498Z,16.67
2024-05-09T23:30:25.555Z,17.20
2024-05-09T23:32:59.717Z,17.47
2024-05-09T23:35:26.867Z,16.70
2024-05-09T23:37:53.783Z,18.60
2024-05-09T23:40:23.326Z,18.63
2024-05-09T23:42:51.032Z,17.83
2024-05-09T23:45:17.981Z,18.50
2024-05-09T23:47:46.025Z,18.20
2024-05-09T23:50:20.231Z,17.70
2024-05-09T23:52:50.675Z,18.60
2024-05-09T23:55:18.057Z,18.70
2024-05-09T23:57:45.313Z,18.83
